Time;durP1;ratioP1;P1;durP2;ratioP2;P2;SDS_P1;SDS_P2;PMS_P1;PMS_P2;Temp;Humidity;BMP_temperature;BMP_pressure;BME280_temperature;BME280_humidity;BME280_pressure;Samples;Min_cycle;Max_cycle;Signal;HPM_P1;HPM_P2
2023/07/10 01:59:34;;;;;;;4.87;4.43;;;25.60;98.10;;;;;;4989439;28;20463;-86
2023/07/10 02:02:03;;;;;;;4.80;4.40;;;25.60;98.10;;;;;;4994293;28;20482;-86
2023/07/10 02:04:30;;;;;;;5.23;4.73;;;25.60;98.20;;;;;;4994598;28;21039;-86
2023/07/10 02:06:57;;;;;;;4.60;4.20;;;25.60;98.10;;;;;;4994806;28;20450;-84
2023/07/10 02:09:24;;;;;;;4.03;3.73;;;25.70;98.10;;;;;;4994730;28;20495;-84
2023/07/10 02:11:52;;;;;;;4.93;4.53;;;25.70;98.40;;;;;;4994740;28;20444;-84
2023/07/10 02:14:19;;;;;;;4.47;4.07;;;25.60;98.00;;;;;;4994704;28;20448;-84
2023/07/10 02:16:46;;;;;;;4.90;4.40;;;25.60;97.90;;;;;;4994411;28;20990;-84
2023/07/10 02:19:15;;;;;;;4.00;3.70;;;25.70;98.10;;;;;;4994352;28;20441;-90
2023/07/10 02:21:42;;;;;;;4.10;3.70;;;25.70;98.10;;;;;;4994643;28;20774;-84
2023/07/10 02:24:09;;;;;;;4.53;4.23;;;25.70;98.00;;;;;;4994565;28;20447;-84
2023/07/10 02:26:36;;;;;;;4.37;3.97;;;25.70;98.00;;;;;;4993823;28;20460;-84
2023/07/10 02:29:03;;;;;;;4.43;4.13;;;25.80;98.50;;;;;;4994479;28;20483;-84
2023/07/10 02:31:30;;;;;;;4.33;4.03;;;25.70;98.10;;;;;;4994502;28;20453;-84
2023/07/10 02:33:57;;;;;;;4.77;4.30;;;25.70;98.10;;;;;;4994463;28;20437;-84
2023/07/10 02:36:29;;;;;;;5.37;4.87;;;25.70;98.20;;;;;;4994558;28;20450;-83
2023/07/10 02:38:56;;;;;;;4.87;4.47;;;25.70;98.10;;;;;;4994475;28;20615;-84
2023/07/10 02:41:23;;;;;;;4.30;3.90;;;25.70;98.10;;;;;;4994121;28;20443;-84
2023/07/10 02:43:49;;;;;;;4.10;3.70;;;25.70;98.10;;;;;;4994659;28;20456;-83
2023/07/10 02:46:16;;;;;;;4.40;4.00;;;25.70;98.00;;;;;;4994353;28;20444;-86
2023/07/10 02:48:43;;;;;;;4.00;3.60;;;25.70;97.90;;;;;;4993859;28;20487;-84
2023/07/10 02:51:10;;;;;;;4.63;4.23;;;25.70;97.90;;;;;;4994434;28;20447;-84
2023/07/10 02:53:39;;;;;;;4.23;3.93;;;25.70;98.00;;;;;;4994262;28;20455;-84
2023/07/10 02:56:05;;;;;;;4.27;3.97;;;25.70;98.00;;;;;;4993997;28;20448;-84
2023/07/10 02:58:32;;;;;;;3.83;3.53;;;25.70;98.00;;;;;;4994433;28;20447;-84
2023/07/10 03:01:01;;;;;;;4.50;4.10;;;25.70;98.10;;;;;;4993884;28;20482;-84
2023/07/10 03:03:28;;;;;;;4.90;4.50;;;25.70;98.00;;;;;;4993876;28;20456;-84
2023/07/10 03:05:56;;;;;;;4.00;3.60;;;25.70;98.10;;;;;;4994118;28;20456;-83
2023/07/10 03:08:23;;;;;;;4.70;4.30;;;25.70;98.10;;;;;;4994722;28;20491;-84
2023/07/10 03:10:59;;;;;;;4.80;4.40;;;25.70;98.10;;;;;;4993672;28;20453;-84
2023/07/10 03:13:26;;;;;;;4.10;3.80;;;25.70;98.10;;;;;;4994106;28;20437;-90
2023/07/10 03:15:59;;;;;;;4.07;3.67;;;25.70;98.20;;;;;;4994042;28;20807;-84
2023/07/10 03:18:26;;;;;;;4.80;4.40;;;25.70;98.20;;;;;;4994104;28;20453;-84
2023/07/10 03:20:53;;;;;;;4.00;3.70;;;25.70;98.10;;;;;;4993571;28;20444;-84
2023/07/10 03:23:19;;;;;;;4.07;3.77;;;25.70;97.90;;;;;;4993983;28;20876;-84
2023/07/10 03:25:46;;;;;;;4.30;4.00;;;25.70;98.10;;;;;;4994197;28;20451;-84
2023/07/10 03:28:15;;;;;;;3.80;3.50;;;25.70;98.00;;;;;;4994080;28;20450;-84
2023/07/10 03:30:42;;;;;;;4.07;3.77;;;25.70;98.00;;;;;;4976326;28;20497;-84
2023/07/10 03:33:11;;;;;;;3.93;3.60;;;25.70;98.00;;;;;;4993927;28;20450;-84
2023/07/10 03:35:38;;;;;;;5.13;4.73;;;25.70;97.90;;;;;;4993836;28;20812;-85
2023/07/10 03:38:04;;;;;;;4.50;4.10;;;25.60;97.90;;;;;;4995650;28;20935;-87
2023/07/10 03:40:31;;;;;;;4.73;4.30;;;25.70;98.00;;;;;;4997179;28;20453;-84
2023/07/10 03:42:58;;;;;;;4.70;4.30;;;25.60;97.90;;;;;;4997486;28;20520;-84
2023/07/10 03:45:26;;;;;;;4.53;4.13;;;25.70;98.00;;;;;;4997258;28;20445;-89
2023/07/10 03:47:53;;;;;;;5.03;4.67;;;25.70;98.00;;;;;;4997803;28;20449;-84
2023/07/10 03:50:19;;;;;;;4.33;4.03;;;25.70;98.00;;;;;;4997528;28;20488;-84
2023/07/10 03:52:46;;;;;;;4.13;3.83;;;25.70;98.00;;;;;;4997269;28;20464;-84
2023/07/10 03:55:13;;;;;;;4.40;4.00;;;25.70;97.90;;;;;;4997282;28;20807;-84
2023/07/10 03:57:40;;;;;;;3.97;3.67;;;25.70;97.90;;;;;;4996865;28;20450;-84
2023/07/10 04:00:07;;;;;;;4.93;4.47;;;25.60;97.80;;;;;;4997072;28;20472;-84
2023/07/10 04:02:35;;;;;;;4.20;3.87;;;25.70;97.80;;;;;;4997341;28;20432;-84
2023/07/10 04:05:02;;;;;;;4.17;3.87;;;25.70;97.60;;;;;;4997092;28;20882;-83
2023/07/10 04:07:29;;;;;;;4.30;4.00;;;25.60;97.60;;;;;;4996730;28;20442;-90
2023/07/10 04:09:56;;;;;;;4.53;4.13;;;25.70;97.60;;;;;;4996855;28;20495;-84
2023/07/10 04:15:58;;;;;;;4.40;4.10;;;25.70;97.60;;;;;;4996733;28;20446;-84
2023/07/10 04:18:29;;;;;;;4.03;3.73;;;25.60;97.70;;;;;;4996865;28;20445;-89
2023/07/10 04:20:56;;;;;;;4.27;3.97;;;25.60;97.70;;;;;;4996695;28;20437;-84
2023/07/10 04:23:22;;;;;;;4.80;4.30;;;25.70;97.60;;;;;;4996584;28;20451;-84
2023/07/10 04:25:50;;;;;;;4.13;3.83;;;25.70;97.60;;;;;;4996453;28;21019;-84
2023/07/10 04:28:16;;;;;;;4.70;4.40;;;25.60;97.60;;;;;;4996565;28;20451;-85
2023/07/10 04:30:44;;;;;;;3.90;3.60;;;25.60;97.60;;;;;;4996732;28;20488;-83
2023/07/10 04:33:11;;;;;;;4.53;4.20;;;25.60;97.70;;;;;;4996474;28;20443;-83
2023/07/10 04:35:40;;;;;;;4.13;3.83;;;25.60;97.60;;;;;;4996474;28;20444;-85
2023/07/10 04:38:07;;;;;;;4.40;4.10;;;25.60;97.60;;;;;;4996404;28;21012;-84
2023/07/10 04:40:34;;;;;;;4.13;3.73;;;25.60;97.60;;;;;;4996337;28;20437;-89
2023/07/10 04:43:03;;;;;;;4.40;4.07;;;25.70;97.60;;;;;;4996270;28;20448;-84
2023/07/10 04:55:37;;;;;;;4.40;4.10;;;25.60;97.50;;;;;;4996245;28;20462;-85
2023/07/10 04:58:04;;;;;;;4.27;3.97;;;25.70;97.60;;;;;;4978491;28;20456;-86
2023/07/10 05:00:33;;;;;;;4.33;4.03;;;25.60;97.60;;;;;;4996232;28;20483;-85
2023/07/10 05:02:59;;;;;;;4.37;4.00;;;25.60;97.60;;;;;;4995977;28;20502;-86
2023/07/10 05:05:29;;;;;;;4.33;4.03;;;25.60;97.60;;;;;;4996436;28;20451;-90
2023/07/10 05:07:56;;;;;;;3.83;3.53;;;25.60;97.60;;;;;;4995784;28;20913;-84
2023/07/10 05:10:23;;;;;;;3.80;3.50;;;25.60;97.50;;;;;;4995815;28;20845;-86
2023/07/10 05:12:51;;;;;;;4.47;4.17;;;25.60;97.50;;;;;;4995706;28;20454;-85
2023/07/10 05:15:19;;;;;;;3.70;3.50;;;25.70;97.60;;;;;;4995755;28;20449;-84
2023/07/10 05:17:46;;;;;;;4.17;3.87;;;25.70;97.70;;;;;;4995678;28;20957;-85
2023/07/10 05:20:13;;;;;;;3.73;3.43;;;25.60;97.70;;;;;;4995514;28;20436;-85
2023/07/10 05:22:41;;;;;;;3.70;3.40;;;25.60;97.50;;;;;;4995188;28;20440;-85
2023/07/10 05:25:09;;;;;;;3.83;3.53;;;25.60;97.50;;;;;;4995723;28;20450;-84
2023/07/10 05:27:37;;;;;;;3.70;3.40;;;25.70;97.50;;;;;;4995102;28;20455;-84
2023/07/10 05:30:06;;;;;;;4.20;3.90;;;25.60;97.60;;;;;;4995093;28;20479;-85
2023/07/10 05:32:33;;;;;;;3.60;3.40;;;25.60;97.40;;;;;;4995469;28;20445;-85
2023/07/10 05:35:00;;;;;;;3.60;3.30;;;25.60;97.40;;;;;;4994897;28;20449;-84
2023/07/10 05:37:27;;;;;;;4.30;3.90;;;25.60;97.30;;;;;;4995297;28;20443;-85
2023/07/10 05:39:54;;;;;;;4.47;4.17;;;25.60;97.30;;;;;;4995061;28;20445;-87
2023/07/10 05:42:20;;;;;;;3.70;3.47;;;25.60;97.30;;;;;;4994928;28;20457;-91
2023/07/10 05:44:47;;;;;;;3.40;3.20;;;25.60;97.20;;;;;;4994913;28;20885;-85
2023/07/10 05:47:16;;;;;;;4.13;3.83;;;25.60;97.40;;;;;;4995253;28;20455;-91
2023/07/10 05:49:42;;;;;;;3.80;3.50;;;25.70;97.30;;;;;;4994925;28;20481;-85
2023/07/10 05:52:09;;;;;;;3.73;3.47;;;25.70;97.40;;;;;;4994905;28;20444;-85
2023/07/10 05:54:36;;;;;;;3.77;3.47;;;25.60;97.20;;;;;;4994715;28;20451;-85
2023/07/10 05:57:03;;;;;;;4.40;4.10;;;25.70;97.30;;;;;;4994952;28;20447;-85
2023/07/10 05:59:29;;;;;;;3.50;3.20;;;25.60;97.30;;;;;;4994854;28;20455;-90
2023/07/10 06:01:57;;;;;;;4.00;3.70;;;25.60;97.20;;;;;;4994574;28;20476;-85
2023/07/10 06:04:25;;;;;;;3.77;3.47;;;25.60;97.30;;;;;;4994659;28;20545;-91
2023/07/10 06:06:51;;;;;;;3.80;3.60;;;25.60;97.30;;;;;;4994497;28;20445;-85
2023/07/10 06:09:18;;;;;;;3.77;3.57;;;25.60;97.30;;;;;;4994704;28;20476;-85
2023/07/10 06:11:45;;;;;;;6.57;4.80;;;25.60;97.50;;;;;;4994756;28;20447;-91
2023/07/10 06:14:12;;;;;;;8.83;5.30;;;25.60;98.00;;;;;;4994714;28;20450;-89
2023/07/10 06:16:38;;;;;;;7.10;5.27;;;25.60;99.50;;;;;;4994670;28;20448;-85
2023/07/10 06:19:05;;;;;;;6.47;4.30;;;25.60;99.60;;;;;;4994239;28;20451;-92
2023/07/10 06:21:33;;;;;;;4.97;4.50;;;25.60;99.80;;;;;;4994654;28;20806;-85
2023/07/10 06:24:00;;;;;;;5.30;4.53;;;25.60;99.80;;;;;;4994816;28;20437;-85
2023/07/10 06:26:27;;;;;;;5.03;4.63;;;25.60;99.80;;;;;;4994612;28;20886;-88
2023/07/10 06:28:54;;;;;;;5.83;3.83;;;25.70;99.80;;;;;;4994512;28;20463;-85
2023/07/10 06:31:20;;;;;;;7.13;4.40;;;25.50;99.80;;;;;;4994378;28;20831;-85
2023/07/10 06:33:47;;;;;;;4.40;4.00;;;25.50;99.60;;;;;;4994093;28;20450;-85
2023/07/10 06:36:14;;;;;;;5.97;3.60;;;25.50;99.80;;;;;;4994421;28;20453;-92
2023/07/10 06:38:42;;;;;;;6.00;4.37;;;25.50;99.90;;;;;;4994394;28;20452;-92
2023/07/10 06:41:11;;;;;;;4.17;3.77;;;25.50;99.90;;;;;;4994584;28;20454;-86
2023/07/10 06:43:37;;;;;;;6.37;4.10;;;25.50;99.90;;;;;;4994383;28;20440;-83
2023/07/10 06:46:05;;;;;;;7.17;5.03;;;25.50;99.90;;;;;;4994197;28;20452;-91
2023/07/10 06:48:32;;;;;;;4.20;3.80;;;25.40;99.20;;;;;;4994372;28;20436;-83
2023/07/10 06:51:00;;;;;;;4.37;3.60;;;25.40;99.10;;;;;;4994119;28;20489;-83
2023/07/10 06:53:27;;;;;;;3.93;3.30;;;25.40;99.30;;;;;;4994189;28;20451;-84
2023/07/10 06:55:57;;;;;;;4.27;3.40;;;25.50;99.60;;;;;;4993979;28;20952;-86
2023/07/10 06:58:23;;;;;;;6.37;3.87;;;25.50;99.90;;;;;;4993958;28;20927;-92
2023/07/10 07:00:50;;;;;;;3.90;3.13;;;25.50;99.80;;;;;;4993717;28;20472;-92
2023/07/10 07:03:17;;;;;;;3.87;3.57;;;25.50;99.90;;;;;;4994067;28;20478;-85
2023/07/10 07:09:06;;;;;;;7.20;3.80;;;25.40;99.90;;;;;;4994054;28;20892;-86
2023/07/10 07:11:34;;;;;;;5.80;4.07;;;25.40;99.90;;;;;;4994063;28;20496;-84
2023/07/10 07:14:01;;;;;;;6.80;4.63;;;25.40;99.90;;;;;;4997736;28;20436;-84
2023/07/10 07:16:27;;;;;;;7.37;4.10;;;25.40;99.90;;;;;;4997898;28;20452;-83
2023/07/10 07:18:54;;;;;;;5.30;4.00;;;25.40;99.90;;;;;;4997558;28;20941;-84
2023/07/10 07:21:21;;;;;;;7.60;3.77;;;25.40;99.90;;;;;;4997795;28;20447;-85
2023/07/10 07:23:48;;;;;;;6.37;3.90;;;25.40;99.90;;;;;;4997802;28;20452;-84
2023/07/10 07:26:14;;;;;;;5.43;4.10;;;25.40;99.90;;;;;;4997725;28;20441;-83
2023/07/10 07:28:44;;;;;;;5.87;4.67;;;25.40;99.90;;;;;;4997696;28;20447;-84
2023/07/10 07:31:11;;;;;;;5.20;4.37;;;25.40;99.90;;;;;;4997463;28;20893;-83
2023/07/10 07:33:38;;;;;;;7.37;3.40;;;25.40;99.90;;;;;;4998185;28;20902;-90
2023/07/10 07:36:05;;;;;;;7.03;4.97;;;25.40;99.90;;;;;;4997543;28;20455;-90
2023/07/10 07:38:32;;;;;;;7.23;4.53;;;25.40;99.90;;;;;;4997554;28;20772;-83
2023/07/10 07:40:59;;;;;;;6.20;4.13;;;25.40;99.90;;;;;;4997233;28;20444;-83
2023/07/10 07:43:25;;;;;;;6.90;4.47;;;25.40;99.90;;;;;;4997435;28;20517;-83
2023/07/10 07:45:55;;;;;;;6.20;5.17;;;25.40;99.90;;;;;;4997452;28;20439;-91
2023/07/10 07:48:23;;;;;;;5.80;4.20;;;25.40;99.90;;;;;;4997329;28;20447;-83
2023/07/10 07:50:58;;;;;;;4.53;3.67;;;25.40;99.90;;;;;;4996964;28;20479;-83
2023/07/10 07:53:25;;;;;;;7.17;4.03;;;25.40;99.90;;;;;;4996844;28;20450;-83
2023/07/10 07:55:52;;;;;;;3.93;3.50;;;25.40;99.80;;;;;;4997515;28;20438;-83
2023/07/10 08:01:48;;;;;;;5.10;4.03;;;25.40;99.30;;;;;;4995856;28;20522;-89
2023/07/10 08:04:15;;;;;;;4.90;3.83;;;25.40;99.00;;;;;;4997008;28;20482;-90
2023/07/10 18:04:45;;;;;;;4.70;2.70;;;25.80;97.80;;;;;;4992435;28;20495;-83
2023/07/10 18:07:12;;;;;;;4.13;3.03;;;25.70;97.80;;;;;;4994588;28;20957;-89
2023/07/10 18:09:39;;;;;;;3.03;2.73;;;25.80;97.60;;;;;;4994576;28;20919;-83
2023/07/10 18:12:12;;;;;;;3.40;2.43;;;25.80;97.60;;;;;;4994682;28;20492;-88
2023/07/10 18:14:39;;;;;;;2.83;2.60;;;25.80;97.50;;;;;;4994650;28;20441;-83
2023/07/10 18:17:13;;;;;;;3.30;2.77;;;25.80;97.40;;;;;;4994737;28;20490;-83
2023/07/10 18:19:40;;;;;;;3.87;2.90;;;25.80;97.50;;;;;;4994704;28;20788;-84
2023/07/10 18:22:13;;;;;;;2.60;2.20;;;25.80;97.30;;;;;;4994378;28;20543;-85
2023/07/10 18:24:40;;;;;;;2.63;2.37;;;25.80;97.30;;;;;;4994369;28;20924;-83
2023/07/10 18:27:16;;;;;;;3.10;2.67;;;25.80;97.50;;;;;;4994501;28;20451;-83
2023/07/10 18:29:44;;;;;;;3.10;2.80;;;25.80;97.30;;;;;;4994872;28;20445;-83
2023/07/10 18:32:16;;;;;;;4.50;2.83;;;25.80;97.30;;;;;;4994162;28;20491;-83
2023/07/10 18:34:44;;;;;;;2.70;2.30;;;25.80;97.30;;;;;;4994560;28;20442;-84
2023/07/10 18:37:13;;;;;;;2.63;2.43;;;25.80;97.50;;;;;;4994115;28;20446;-83
2023/07/10 18:39:40;;;;;;;3.07;2.77;;;25.80;97.70;;;;;;4994430;28;20442;-83
2023/07/10 18:45:29;;;;;;;3.83;2.70;;;25.80;97.20;;;;;;4994183;28;20436;-84
2023/07/10 18:47:56;;;;;;;3.70;2.67;;;25.80;97.60;;;;;;4994757;28;20507;-91
2023/07/10 18:50:23;;;;;;;5.30;2.67;;;25.80;97.50;;;;;;4994339;28;20878;-92
2023/07/10 18:52:51;;;;;;;3.37;2.90;;;25.80;97.40;;;;;;4994290;28;20448;-89
2023/07/10 18:55:20;;;;;;;3.50;2.80;;;25.80;97.70;;;;;;4995553;28;20449;-90
2023/07/10 18:57:47;;;;;;;3.23;2.80;;;25.80;97.50;;;;;;4994269;28;20457;-90
2023/07/10 19:00:22;;;;;;;3.77;3.13;;;25.80;97.40;;;;;;4994159;28;20444;-90
2023/07/10 19:02:49;;;;;;;3.83;2.97;;;25.80;97.50;;;;;;4993993;28;20439;-90
2023/07/10 19:05:16;;;;;;;2.93;2.63;;;25.80;97.30;;;;;;4993866;28;20497;-91
2023/07/10 19:07:43;;;;;;;4.60;3.33;;;25.80;97.40;;;;;;4994039;28;20449;-92
2023/07/10 19:10:18;;;;;;;2.77;2.50;;;25.80;97.60;;;;;;4997906;28;20471;-91
2023/07/10 19:12:45;;;;;;;3.40;2.73;;;25.90;97.00;;;;;;4998090;28;20467;-90
2023/07/10 19:18:35;;;;;;;5.60;2.60;;;25.90;97.30;;;;;;4998094;28;20406;-91
2023/07/10 19:21:04;;;;;;;2.87;2.67;;;25.80;96.80;;;;;;4997784;28;20441;-90
2023/07/10 19:23:32;;;;;;;5.77;2.70;;;25.80;97.10;;;;;;4997971;28;20449;-90
2023/07/10 19:26:00;;;;;;;3.60;3.00;;;25.80;96.70;;;;;;4997801;28;20443;-91
2023/07/10 19:28:28;;;;;;;4.03;2.60;;;25.80;96.90;;;;;;4997771;28;20451;-91
2023/07/10 19:30:57;;;;;;;2.90;2.30;;;25.80;96.90;;;;;;4997724;28;20538;-90
2023/07/10 19:33:27;;;;;;;3.37;3.10;;;25.80;96.90;;;;;;4997461;28;20447;-91
2023/07/10 19:35:54;;;;;;;3.10;2.53;;;25.80;97.00;;;;;;4997603;28;20444;-90
2023/07/10 19:38:23;;;;;;;3.90;2.37;;;25.80;97.00;;;;;;4997636;28;20448;-90
2023/07/10 19:40:51;;;;;;;2.90;2.50;;;25.80;97.40;;;;;;4997616;28;20640;-90
2023/07/10 19:43:19;;;;;;;2.83;2.37;;;25.80;96.90;;;;;;4997776;28;20476;-91
2023/07/10 19:45:47;;;;;;;3.00;2.57;;;25.80;97.00;;;;;;4997255;28;20448;-90
2023/07/10 19:48:16;;;;;;;4.27;2.50;;;25.80;97.00;;;;;;4997193;28;20957;-91
2023/07/10 19:50:42;;;;;;;2.73;2.40;;;25.90;96.80;;;;;;4997074;28;20998;-90
2023/07/10 19:53:20;;;;;;;2.83;2.23;;;25.80;96.80;;;;;;4997088;28;20536;-92
2023/07/10 19:55:49;;;;;;;2.63;2.43;;;25.80;96.60;;;;;;4997267;28;20515;-92
2023/07/10 19:58:18;;;;;;;3.97;2.83;;;25.80;96.60;;;;;;4997347;28;20473;-89
2023/07/10 20:00:47;;;;;;;3.37;2.50;;;25.80;96.50;;;;;;4997260;28;20464;-91
2023/07/10 20:06:35;;;;;;;4.00;2.57;;;25.80;96.50;;;;;;4995311;28;20869;-91
2023/07/10 20:09:12;;;;;;;2.50;2.30;;;25.80;96.60;;;;;;4996916;28;20455;-91
2023/07/10 20:15:00;;;;;;;3.50;2.70;;;25.80;96.60;;;;;;4996869;28;20400;-91
2023/07/10 20:17:33;;;;;;;4.90;2.20;;;25.80;96.50;;;;;;4997038;28;20450;-90
2023/07/10 20:20:03;;;;;;;4.03;2.67;;;25.80;96.40;;;;;;4996614;28;20445;-90
2023/07/10 20:22:30;;;;;;;3.07;2.53;;;25.80;96.50;;;;;;4996625;28;20465;-91
2023/07/10 20:24:57;;;;;;;5.30;2.53;;;25.80;96.50;;;;;;4996482;28;20460;-90
2023/07/10 20:27:24;;;;;;;2.30;2.10;;;25.80;96.50;;;;;;4996568;28;20536;-92
2023/07/10 20:29:51;;;;;;;2.47;2.27;;;25.80;96.50;;;;;;4996340;28;20450;-91
2023/07/10 20:32:18;;;;;;;3.13;2.37;;;25.90;96.50;;;;;;4996542;28;20508;-91
2023/07/10 20:38:15;;;;;;;3.33;2.30;;;25.80;96.50;;;;;;4996336;28;20467;-90
2023/07/10 20:40:42;;;;;;;3.50;2.40;;;25.80;96.50;;;;;;4996636;28;20921;-88
2023/07/10 20:43:15;;;;;;;2.33;2.10;;;25.80;96.50;;;;;;4996227;28;20470;-92
2023/07/10 20:45:46;;;;;;;2.53;2.30;;;25.80;97.00;;;;;;4996451;28;20438;-90
2023/07/10 20:51:35;;;;;;;2.63;2.43;;;25.80;96.60;;;;;;4996029;28;20515;-88
2023/07/10 20:54:12;;;;;;;3.60;2.77;;;25.80;96.60;;;;;;4995889;28;20452;-90
2023/07/10 20:56:39;;;;;;;2.63;2.30;;;25.90;96.50;;;;;;4995936;28;20433;-89
2023/07/10 20:59:21;;;;;;;3.13;2.80;;;25.80;96.70;;;;;;4995712;28;20444;-90
2023/07/10 21:01:49;;;;;;;5.43;2.50;;;25.90;96.70;;;;;;4996129;28;20437;-92
2023/07/10 21:04:16;;;;;;;2.03;1.83;;;25.90;96.70;;;;;;4995938;28;20951;-90
2023/07/10 21:06:43;;;;;;;2.93;2.50;;;25.90;96.60;;;;;;4995534;28;20486;-90
2023/07/10 21:09:22;;;;;;;2.27;2.07;;;26.00;97.00;;;;;;4995670;28;20452;-91
2023/07/10 21:11:48;;;;;;;2.73;2.27;;;25.90;96.60;;;;;;4996113;28;20476;-90
2023/07/10 21:14:15;;;;;;;2.63;1.93;;;25.90;96.60;;;;;;4996556;28;20446;-90
2023/07/10 21:16:42;;;;;;;2.50;2.30;;;25.90;96.60;;;;;;4995509;28;20451;-90
2023/07/10 21:19:20;;;;;;;3.53;2.33;;;25.90;96.60;;;;;;4995551;28;20955;-90
2023/07/10 21:21:47;;;;;;;6.60;2.10;;;25.90;96.60;;;;;;4995812;28;20437;-90
2023/07/10 21:24:15;;;;;;;2.37;2.17;;;25.90;96.50;;;;;;4995399;28;20452;-90
2023/07/10 21:30:15;;;;;;;2.63;2.07;;;25.90;96.40;;;;;;4995397;28;20457;-90
2023/07/10 21:32:42;;;;;;;3.20;1.90;;;25.80;96.50;;;;;;4994955;28;20482;-90
2023/07/10 21:38:30;;;;;;;3.43;2.10;;;25.80;96.40;;;;;;4995564;28;20436;-90
2023/07/10 21:44:23;;;;;;;3.03;2.10;;;25.80;96.40;;;;;;4995379;28;20761;-90
2023/07/10 21:46:51;;;;;;;3.67;2.10;;;25.80;96.50;;;;;;4995321;28;20449;-90
2023/07/10 21:52:40;;;;;;;2.90;2.43;;;25.80;96.40;;;;;;4994934;28;20818;-90
2023/07/10 21:58:32;;;;;;;2.40;2.20;;;25.80;96.40;;;;;;4994882;28;20488;-90
2023/07/10 22:00:59;;;;;;;3.20;2.00;;;25.80;96.40;;;;;;4994688;28;20440;-90
2023/07/10 22:03:29;;;;;;;2.83;2.53;;;25.80;96.40;;;;;;4994935;28;20440;-90
2023/07/10 22:05:57;;;;;;;2.80;2.10;;;25.80;96.40;;;;;;4994571;28;20488;-90
2023/07/10 22:08:25;;;;;;;2.47;2.27;;;25.80;96.50;;;;;;4995092;28;20972;-90
2023/07/10 22:10:55;;;;;;;2.30;2.03;;;25.80;96.50;;;;;;4994438;28;20445;-90
2023/07/10 22:13:23;;;;;;;3.63;2.40;;;25.80;96.40;;;;;;4994769;28;20490;-90
2023/07/10 22:15:52;;;;;;;3.13;2.30;;;25.80;96.40;;;;;;4994769;28;20463;-90
2023/07/10 22:18:21;;;;;;;1.97;1.87;;;25.80;96.30;;;;;;4994481;28;20456;-90
2023/07/10 22:20:51;;;;;;;2.93;2.50;;;25.80;96.30;;;;;;4995359;28;20458;-91
2023/07/10 22:26:40;;;;;;;2.40;1.93;;;25.80;96.30;;;;;;4994510;28;20451;-91
2023/07/10 22:29:06;;;;;;;2.63;2.30;;;25.80;96.70;;;;;;4994663;28;20544;-91
2023/07/10 22:31:33;;;;;;;1.90;1.63;;;25.80;96.40;;;;;;4994152;28;20568;-90
2023/07/10 22:34:00;;;;;;;2.40;2.20;;;25.80;96.40;;;;;;4994443;28;20448;-90
2023/07/10 22:36:28;;;;;;;2.40;2.20;;;25.80;96.50;;;;;;4994675;28;20457;-90
2023/07/10 22:38:55;;;;;;;2.67;2.00;;;25.80;96.60;;;;;;4994520;28;20485;-91
2023/07/10 22:41:26;;;;;;;2.60;2.40;;;25.80;96.60;;;;;;4994317;28;20805;-91
2023/07/10 22:43:55;;;;;;;2.07;1.97;;;25.80;96.60;;;;;;4994428;28;20433;-90
2023/07/10 22:49:44;;;;;;;2.70;1.93;;;25.80;96.50;;;;;;4994196;28;20406;-90
2023/07/10 22:55:33;;;;;;;2.10;1.93;;;25.80;96.50;;;;;;4994165;28;20750;-90
2023/07/10 22:58:00;;;;;;;2.27;2.03;;;25.80;96.80;;;;;;4994194;28;20451;-90
2023/07/10 23:03:51;;;;;;;2.13;1.93;;;25.80;96.50;;;;;;4994032;28;20399;-90
2023/07/10 23:06:20;;;;;;;2.80;2.50;;;25.80;96.60;;;;;;4994129;28;20476;-91
2023/07/10 23:08:48;;;;;;;2.27;2.07;;;25.80;96.60;;;;;;4994651;28;20449;-90
2023/07/10 23:14:38;;;;;;;1.93;1.70;;;25.80;96.60;;;;;;4994202;28;20493;-90
2023/07/10 23:20:28;;;;;;;1.93;1.80;;;25.80;96.60;;;;;;4994073;28;20460;-90
2023/07/10 23:26:19;;;;;;;2.00;1.80;;;25.80;96.40;;;;;;4993880;28;20894;-89
2023/07/10 23:32:09;;;;;;;2.17;1.93;;;25.70;96.30;;;;;;4993796;28;20472;-90
2023/07/10 23:37:58;;;;;;;1.90;1.73;;;25.70;96.40;;;;;;4993864;28;20403;-90
2023/07/10 23:40:28;;;;;;;2.20;2.10;;;25.70;96.40;;;;;;4993919;28;20556;-90
2023/07/10 23:42:55;;;;;;;2.33;2.13;;;25.80;96.40;;;;;;4993659;28;20433;-90
2023/07/10 23:45:22;;;;;;;2.47;2.20;;;25.80;96.50;;;;;;4993981;28;20483;-90
2023/07/10 23:47:51;;;;;;;2.13;1.70;;;25.70;96.40;;;;;;4993517;28;20451;-90
2023/07/10 23:50:20;;;;;;;4.13;2.30;;;25.80;96.40;;;;;;4993459;28;20498;-89
2023/07/10 23:52:47;;;;;;;2.40;1.83;;;25.80;96.40;;;;;;4993734;28;20499;-90
2023/07/10 23:55:15;;;;;;;2.40;2.20;;;25.80;96.50;;;;;;4995793;28;20455;-90
2023/07/10 23:57:44;;;;;;;2.07;1.87;;;25.80;96.40;;;;;;4996973;28;20951;-90
